sensor_id;sensor_type;location;lat;lon;timestamp;temperature;humidity
19385;DHT22;9828;54.122;17.974;2023-07-16T00:03:57;22.70;99.90
19385;DHT22;9828;54.122;17.974;2023-07-16T00:09:19;22.70;99.90
19385;DHT22;9828;54.122;17.974;2023-07-16T00:14:40;22.60;99.90
19385;DHT22;9828;54.122;17.974;2023-07-16T00:20:01;22.70;99.90
19385;DHT22;9828;54.122;17.974;2023-07-16T00:25:22;22.60;99.90
19385;DHT22;9828;54.122;17.974;2023-07-16T00:30:44;22.60;99.90
19385;DHT22;9828;54.122;17.974;2023-07-16T00:36:05;22.50;99.90
19385;DHT22;9828;54.122;17.974;2023-07-16T00:41:27;22.50;99.90
19385;DHT22;9828;54.122;17.974;2023-07-16T00:46:49;22.40;99.90
19385;DHT22;9828;54.122;17.974;2023-07-16T00:52:16;22.40;99.90
19385;DHT22;9828;54.122;17.974;2023-07-16T00:57:39;22.40;99.90
19385;DHT22;9828;54.122;17.974;2023-07-16T01:03:03;22.30;99.90
19385;DHT22;9828;54.122;17.974;2023-07-16T01:08:40;22.30;99.90
19385;DHT22;9828;54.122;17.974;2023-07-16T01:14:02;22.20;99.90
19385;DHT22;9828;54.122;17.974;2023-07-16T01:19:24;22.20;99.90
19385;DHT22;9828;54.122;17.974;2023-07-16T01:30:42;22.30;99.90
19385;DHT22;9828;54.122;17.974;2023-07-16T01:36:06;22.30;99.90
19385;DHT22;9828;54.122;17.974;2023-07-16T01:41:28;22.40;99.90
19385;DHT22;9828;54.122;17.974;2023-07-16T01:47:10;22.40;99.90
19385;DHT22;9828;54.122;17.974;2023-07-16T01:52:32;22.40;99.90
19385;DHT22;9828;54.122;17.974;2023-07-16T01:57:53;22.40;99.90
19385;DHT22;9828;54.122;17.974;2023-07-16T02:03:14;22.40;99.90
19385;DHT22;9828;54.122;17.974;2023-07-16T02:08:36;22.40;99.90
19385;DHT22;9828;54.122;17.974;2023-07-16T02:13:57;22.40;99.90
19385;DHT22;9828;54.122;17.974;2023-07-16T02:19:19;22.30;99.90
19385;DHT22;9828;54.122;17.974;2023-07-16T02:24:40;22.30;99.90
19385;DHT22;9828;54.122;17.974;2023-07-16T02:30:02;22.20;99.90
19385;DHT22;9828;54.122;17.974;2023-07-16T02:35:23;22.20;99.90
19385;DHT22;9828;54.122;17.974;2023-07-16T02:40:46;22.20;99.90
19385;DHT22;9828;54.122;17.974;2023-07-16T02:46:07;22.20;99.90
19385;DHT22;9828;54.122;17.974;2023-07-16T02:51:28;22.30;99.90
19385;DHT22;9828;54.122;17.974;2023-07-16T02:56:50;22.30;99.90
19385;DHT22;9828;54.122;17.974;2023-07-16T03:02:11;22.20;99.90
19385;DHT22;9828;54.122;17.974;2023-07-16T03:07:32;22.10;99.90
19385;DHT22;9828;54.122;17.974;2023-07-16T03:12:54;22.10;1.00
19385;DHT22;9828;54.122;17.974;2023-07-16T03:18:17;22.00;1.00
19385;DHT22;9828;54.122;17.974;2023-07-16T03:23:39;22.00;1.00
19385;DHT22;9828;54.122;17.974;2023-07-16T06:04:33;25.50;1.00
19385;DHT22;9828;54.122;17.974;2023-07-16T06:09:54;24.30;1.00
19385;DHT22;9828;54.122;17.974;2023-07-16T06:15:15;24.30;1.00
19385;DHT22;9828;54.122;17.974;2023-07-16T06:20:37;24.60;99.90
19385;DHT22;9828;54.122;17.974;2023-07-16T06:25:58;24.70;99.90
19385;DHT22;9828;54.122;17.974;2023-07-16T06:36:41;25.20;99.90
19385;DHT22;9828;54.122;17.974;2023-07-16T06:42:02;25.60;99.90
19385;DHT22;9828;54.122;17.974;2023-07-16T06:47:24;25.90;99.90
19385;DHT22;9828;54.122;17.974;2023-07-16T06:52:45;26.40;99.90
19385;DHT22;9828;54.122;17.974;2023-07-16T06:58:10;26.90;99.90
19385;DHT22;9828;54.122;17.974;2023-07-16T07:03:32;27.60;99.90
19385;DHT22;9828;54.122;17.974;2023-07-16T07:14:18;28.60;99.90
19385;DHT22;9828;54.122;17.974;2023-07-16T07:19:39;29.20;99.90
19385;DHT22;9828;54.122;17.974;2023-07-16T07:25:00;29.50;99.90
19385;DHT22;9828;54.122;17.974;2023-07-16T07:30:22;29.90;99.90
19385;DHT22;9828;54.122;17.974;2023-07-16T07:35:43;29.90;99.90
19385;DHT22;9828;54.122;17.974;2023-07-16T07:41:05;30.00;99.90
19385;DHT22;9828;54.122;17.974;2023-07-16T07:46:27;29.40;99.90
19385;DHT22;9828;54.122;17.974;2023-07-16T07:51:48;28.70;99.90
19385;DHT22;9828;54.122;17.974;2023-07-16T07:57:10;28.30;99.90
19385;DHT22;9828;54.122;17.974;2023-07-16T08:02:31;28.30;99.90
19385;DHT22;9828;54.122;17.974;2023-07-16T08:07:53;28.00;99.90
19385;DHT22;9828;54.122;17.974;2023-07-16T08:13:14;28.00;99.90
19385;DHT22;9828;54.122;17.974;2023-07-16T08:18:35;28.10;99.90
19385;DHT22;9828;54.122;17.974;2023-07-16T08:23:56;28.00;99.90
19385;DHT22;9828;54.122;17.974;2023-07-16T08:29:18;27.90;99.90
19385;DHT22;9828;54.122;17.974;2023-07-16T08:34:39;27.70;99.90
19385;DHT22;9828;54.122;17.974;2023-07-16T08:40:01;27.50;99.90
19385;DHT22;9828;54.122;17.974;2023-07-16T08:45:23;27.40;99.90
19385;DHT22;9828;54.122;17.974;2023-07-16T08:50:47;27.30;99.90
19385;DHT22;9828;54.122;17.974;2023-07-16T08:56:09;27.00;99.90
19385;DHT22;9828;54.122;17.974;2023-07-16T09:01:31;26.80;99.90
19385;DHT22;9828;54.122;17.974;2023-07-16T09:06:52;26.70;99.90
19385;DHT22;9828;54.122;17.974;2023-07-16T09:12:14;26.60;99.90
19385;DHT22;9828;54.122;17.974;2023-07-16T09:17:35;26.40;99.90
19385;DHT22;9828;54.122;17.974;2023-07-16T09:22:59;26.10;99.90
19385;DHT22;9828;54.122;17.974;2023-07-16T09:28:21;26.20;99.90
19385;DHT22;9828;54.122;17.974;2023-07-16T09:33:46;26.20;99.90
19385;DHT22;9828;54.122;17.974;2023-07-16T09:39:07;26.30;99.90
19385;DHT22;9828;54.122;17.974;2023-07-16T09:44:30;26.40;99.90
19385;DHT22;9828;54.122;17.974;2023-07-16T09:49:51;26.50;99.90
19385;DHT22;9828;54.122;17.974;2023-07-16T09:55:14;26.40;99.90
19385;DHT22;9828;54.122;17.974;2023-07-16T10:00:36;26.60;99.90
19385;DHT22;9828;54.122;17.974;2023-07-16T10:06:08;27.10;99.90
19385;DHT22;9828;54.122;17.974;2023-07-16T10:11:37;27.30;99.90
19385;DHT22;9828;54.122;17.974;2023-07-16T10:17:02;27.40;99.90
19385;DHT22;9828;54.122;17.974;2023-07-16T10:27:54;26.70;99.90
19385;DHT22;9828;54.122;17.974;2023-07-16T10:33:16;26.40;99.90
19385;DHT22;9828;54.122;17.974;2023-07-16T10:38:41;26.30;99.90
19385;DHT22;9828;54.122;17.974;2023-07-16T10:44:03;26.30;99.90
19385;DHT22;9828;54.122;17.974;2023-07-16T10:49:28;26.10;99.90
19385;DHT22;9828;54.122;17.974;2023-07-16T11:00:16;26.00;1.00
19385;DHT22;9828;54.122;17.974;2023-07-16T11:05:38;26.20;1.00
19385;DHT22;9828;54.122;17.974;2023-07-16T11:10:59;26.80;1.00
19385;DHT22;9828;54.122;17.974;2023-07-16T11:16:21;27.30;1.00
19385;DHT22;9828;54.122;17.974;2023-07-16T11:21:42;27.50;1.00
19385;DHT22;9828;54.122;17.974;2023-07-16T11:27:03;27.90;1.00
19385;DHT22;9828;54.122;17.974;2023-07-16T11:32:46;28.40;99.90
19385;DHT22;9828;54.122;17.974;2023-07-16T11:38:08;29.20;99.90
19385;DHT22;9828;54.122;17.974;2023-07-16T11:43:36;29.00;99.90
19385;DHT22;9828;54.122;17.974;2023-07-16T11:48:58;28.90;99.90
19385;DHT22;9828;54.122;17.974;2023-07-16T11:54:20;28.80;99.90
19385;DHT22;9828;54.122;17.974;2023-07-16T11:59:41;28.60;99.90
19385;DHT22;9828;54.122;17.974;2023-07-16T12:05:03;28.10;99.90
19385;DHT22;9828;54.122;17.974;2023-07-16T12:10:24;28.20;99.90
19385;DHT22;9828;54.122;17.974;2023-07-16T12:15:45;28.10;99.90
19385;DHT22;9828;54.122;17.974;2023-07-16T12:21:06;28.90;99.90
19385;DHT22;9828;54.122;17.974;2023-07-16T12:26:28;29.00;99.90
19385;DHT22;9828;54.122;17.974;2023-07-16T12:31:49;28.90;99.90
19385;DHT22;9828;54.122;17.974;2023-07-16T12:37:11;29.30;99.90
19385;DHT22;9828;54.122;17.974;2023-07-16T12:42:32;29.50;99.90
19385;DHT22;9828;54.122;17.974;2023-07-16T12:47:53;29.00;99.90
19385;DHT22;9828;54.122;17.974;2023-07-16T12:53:15;29.00;99.90
19385;DHT22;9828;54.122;17.974;2023-07-16T12:58:36;28.90;99.90
19385;DHT22;9828;54.122;17.974;2023-07-16T13:03:58;29.00;99.90
19385;DHT22;9828;54.122;17.974;2023-07-16T13:09:19;28.80;99.90
19385;DHT22;9828;54.122;17.974;2023-07-16T13:14:40;28.60;99.90
19385;DHT22;9828;54.122;17.974;2023-07-16T13:20:02;28.90;99.90
19385;DHT22;9828;54.122;17.974;2023-07-16T13:25:24;29.10;99.90
19385;DHT22;9828;54.122;17.974;2023-07-16T13:30:45;29.10;99.90
19385;DHT22;9828;54.122;17.974;2023-07-16T13:36:06;28.70;99.90
19385;DHT22;9828;54.122;17.974;2023-07-16T13:41:28;28.30;99.90
19385;DHT22;9828;54.122;17.974;2023-07-16T13:46:49;28.20;99.90
19385;DHT22;9828;54.122;17.974;2023-07-16T13:52:11;28.00;99.90
19385;DHT22;9828;54.122;17.974;2023-07-16T13:57:32;27.80;99.90
19385;DHT22;9828;54.122;17.974;2023-07-16T14:02:53;27.80;99.90
19385;DHT22;9828;54.122;17.974;2023-07-16T14:08:15;27.80;99.90
19385;DHT22;9828;54.122;17.974;2023-07-16T14:13:36;28.00;99.90
19385;DHT22;9828;54.122;17.974;2023-07-16T14:18:57;28.00;99.90
19385;DHT22;9828;54.122;17.974;2023-07-16T14:24:19;27.90;99.90
19385;DHT22;9828;54.122;17.974;2023-07-16T14:29:40;27.80;99.90
19385;DHT22;9828;54.122;17.974;2023-07-16T14:35:07;27.70;99.90
19385;DHT22;9828;54.122;17.974;2023-07-16T14:40:32;27.70;99.90
19385;DHT22;9828;54.122;17.974;2023-07-16T14:45:54;27.50;99.90
19385;DHT22;9828;54.122;17.974;2023-07-16T14:51:15;27.40;99.90
19385;DHT22;9828;54.122;17.974;2023-07-16T14:56:36;27.40;1.00
19385;DHT22;9828;54.122;17.974;2023-07-16T15:01:58;27.50;1.00
19385;DHT22;9828;54.122;17.974;2023-07-16T15:07:19;27.70;51.70
19385;DHT22;9828;54.122;17.974;2023-07-16T15:12:41;28.00;1.00
19385;DHT22;9828;54.122;17.974;2023-07-16T15:18:02;28.00;99.90
19385;DHT22;9828;54.122;17.974;2023-07-16T15:23:25;28.10;99.90
19385;DHT22;9828;54.122;17.974;2023-07-16T15:28:47;28.10;99.90
19385;DHT22;9828;54.122;17.974;2023-07-16T15:34:08;28.10;99.90
19385;DHT22;9828;54.122;17.974;2023-07-16T15:39:29;28.10;99.90
19385;DHT22;9828;54.122;17.974;2023-07-16T15:44:51;28.10;99.90
19385;DHT22;9828;54.122;17.974;2023-07-16T15:50:12;27.90;99.90
19385;DHT22;9828;54.122;17.974;2023-07-16T15:55:34;27.80;99.90
19385;DHT22;9828;54.122;17.974;2023-07-16T16:00:55;27.70;99.90
19385;DHT22;9828;54.122;17.974;2023-07-16T16:06:17;27.60;1.00
19385;DHT22;9828;54.122;17.974;2023-07-16T16:11:38;27.50;99.90
19385;DHT22;9828;54.122;17.974;2023-07-16T16:17:00;27.30;99.90
19385;DHT22;9828;54.122;17.974;2023-07-16T16:22:24;27.10;99.90
19385;DHT22;9828;54.122;17.974;2023-07-16T16:27:46;26.80;99.90
19385;DHT22;9828;54.122;17.974;2023-07-16T16:33:08;26.60;99.90
19385;DHT22;9828;54.122;17.974;2023-07-16T16:38:30;26.50;99.90
19385;DHT22;9828;54.122;17.974;2023-07-16T16:43:51;26.30;99.90
19385;DHT22;9828;54.122;17.974;2023-07-16T16:49:13;26.10;99.90
19385;DHT22;9828;54.122;17.974;2023-07-16T16:59:57;25.30;99.90
19385;DHT22;9828;54.122;17.974;2023-07-16T17:05:19;24.80;99.90
19385;DHT22;9828;54.122;17.974;2023-07-16T17:10:40;24.50;1.00
19385;DHT22;9828;54.122;17.974;2023-07-16T17:16:02;24.30;1.00
19385;DHT22;9828;54.122;17.974;2023-07-16T17:21:23;24.00;99.90
19385;DHT22;9828;54.122;17.974;2023-07-16T17:26:47;24.00;1.00
19385;DHT22;9828;54.122;17.974;2023-07-16T17:32:08;24.00;99.90
19385;DHT22;9828;54.122;17.974;2023-07-16T17:37:30;24.10;99.90
19385;DHT22;9828;54.122;17.974;2023-07-16T17:42:53;23.90;1.00
19385;DHT22;9828;54.122;17.974;2023-07-16T17:48:15;23.80;99.90
19385;DHT22;9828;54.122;17.974;2023-07-16T17:58:58;23.40;99.90
19385;DHT22;9828;54.122;17.974;2023-07-16T18:09:41;23.30;92.30
19385;DHT22;9828;54.122;17.974;2023-07-16T18:15:02;23.10;83.20
19385;DHT22;9828;54.122;17.974;2023-07-16T18:20:24;22.90;99.90
19385;DHT22;9828;54.122;17.974;2023-07-16T18:31:07;22.80;99.90
19385;DHT22;9828;54.122;17.974;2023-07-16T18:41:53;22.70;99.90
19385;DHT22;9828;54.122;17.974;2023-07-16T18:47:14;22.50;1.00
19385;DHT22;9828;54.122;17.974;2023-07-16T18:52:36;22.30;1.00
19385;DHT22;9828;54.122;17.974;2023-07-16T18:57:57;22.40;1.00
19385;DHT22;9828;54.122;17.974;2023-07-16T19:03:19;22.00;1.00
19385;DHT22;9828;54.122;17.974;2023-07-16T19:08:40;21.90;1.00
19385;DHT22;9828;54.122;17.974;2023-07-16T19:19:24;21.30;1.00
19385;DHT22;9828;54.122;17.974;2023-07-16T19:24:45;21.20;1.00
19385;DHT22;9828;54.122;17.974;2023-07-16T19:30:07;21.10;6.80
19385;DHT22;9828;54.122;17.974;2023-07-16T19:35:28;20.90;1.00
19385;DHT22;9828;54.122;17.974;2023-07-16T19:46:13;20.90;99.90
19385;DHT22;9828;54.122;17.974;2023-07-16T19:51:34;20.80;99.90
19385;DHT22;9828;54.122;17.974;2023-07-16T20:07:42;20.50;99.90
19385;DHT22;9828;54.122;17.974;2023-07-16T20:13:03;20.30;1.00
19385;DHT22;9828;54.122;17.974;2023-07-16T20:18:24;20.20;1.00
19385;DHT22;9828;54.122;17.974;2023-07-16T20:23:46;20.20;1.00
19385;DHT22;9828;54.122;17.974;2023-07-16T20:29:08;20.10;1.00
19385;DHT22;9828;54.122;17.974;2023-07-16T20:34:29;20.00;99.90
19385;DHT22;9828;54.122;17.974;2023-07-16T20:39:51;19.90;1.00
19385;DHT22;9828;54.122;17.974;2023-07-16T20:50:37;19.80;1.00
19385;DHT22;9828;54.122;17.974;2023-07-16T20:55:58;19.70;99.90
19385;DHT22;9828;54.122;17.974;2023-07-16T21:01:20;19.70;1.00
19385;DHT22;9828;54.122;17.974;2023-07-16T21:06:41;19.60;1.00
19385;DHT22;9828;54.122;17.974;2023-07-16T21:12:02;19.40;1.00
19385;DHT22;9828;54.122;17.974;2023-07-16T21:17:24;19.30;1.00
19385;DHT22;9828;54.122;17.974;2023-07-16T21:22:45;19.30;1.00
19385;DHT22;9828;54.122;17.974;2023-07-16T21:28:06;19.30;1.00
19385;DHT22;9828;54.122;17.974;2023-07-16T21:33:30;19.20;1.00
19385;DHT22;9828;54.122;17.974;2023-07-16T21:38:52;19.20;99.90
19385;DHT22;9828;54.122;17.974;2023-07-16T21:44:13;19.20;15.50
19385;DHT22;9828;54.122;17.974;2023-07-16T21:49:35;19.20;1.00
19385;DHT22;9828;54.122;17.974;2023-07-16T21:54:57;19.20;1.00
19385;DHT22;9828;54.122;17.974;2023-07-16T22:00:18;19.10;1.00
19385;DHT22;9828;54.122;17.974;2023-07-16T22:05:43;19.10;1.00
19385;DHT22;9828;54.122;17.974;2023-07-16T22:11:04;19.00;1.00
19385;DHT22;9828;54.122;17.974;2023-07-16T22:16:25;19.00;1.00
19385;DHT22;9828;54.122;17.974;2023-07-16T22:21:48;18.90;1.00
19385;DHT22;9828;54.122;17.974;2023-07-16T22:27:09;18.80;1.00
19385;DHT22;9828;54.122;17.974;2023-07-16T22:32:30;18.80;99.90
19385;DHT22;9828;54.122;17.974;2023-07-16T22:37:52;18.70;1.00
19385;DHT22;9828;54.122;17.974;2023-07-16T22:43:14;18.70;1.00
19385;DHT22;9828;54.122;17.974;2023-07-16T22:48:39;18.70;1.00
19385;DHT22;9828;54.122;17.974;2023-07-16T22:54:01;18.70;99.90
19385;DHT22;9828;54.122;17.974;2023-07-16T22:59:24;18.80;1.00
19385;DHT22;9828;54.122;17.974;2023-07-16T23:04:45;18.80;99.90
19385;DHT22;9828;54.122;17.974;2023-07-16T23:10:07;18.70;99.90
19385;DHT22;9828;54.122;17.974;2023-07-16T23:15:29;18.80;99.90
19385;DHT22;9828;54.122;17.974;2023-07-16T23:20:51;18.70;91.20
19385;DHT22;9828;54.122;17.974;2023-07-16T23:26:12;18.70;19.40
19385;DHT22;9828;54.122;17.974;2023-07-16T23:31:33;18.70;99.90
19385;DHT22;9828;54.122;17.974;2023-07-16T23:36:55;18.70;99.90
19385;DHT22;9828;54.122;17.974;2023-07-16T23:42:16;18.70;1.00
19385;DHT22;9828;54.122;17.974;2023-07-16T23:47:37;18.70;1.00
19385;DHT22;9828;54.122;17.974;2023-07-16T23:52:59;18.60;1.00
19385;DHT22;9828;54.122;17.974;2023-07-16T23:58:20;18.60;1.00
